Time;durP1;ratioP1;P1;durP2;ratioP2;P2;SDS_P1;SDS_P2;PMS_P1;PMS_P2;Temp;Humidity;BMP_temperature;BMP_pressure;BME280_temperature;BME280_humidity;BME280_pressure;Samples;Min_cycle;Max_cycle;Signal;HPM_P1;HPM_P2
2020/12/28 00:00:56;;;;;;;12.37;6.87;;;;;;;4.74;62.88;97229.94;251734;1134;114833;-66
2020/12/28 00:05:59;;;;;;;9.80;5.67;;;;;;;4.78;63.68;97214.77;250627;1135;115097;-66
2020/12/28 00:11:01;;;;;;;10.13;5.37;;;;;;;4.82;63.82;97211.80;251884;1133;114513;-65
2020/12/28 00:16:03;;;;;;;10.87;5.77;;;;;;;4.87;63.49;97190.42;251549;1135;114737;-65
2020/12/28 00:21:07;;;;;;;10.23;5.00;;;;;;;4.92;62.65;97186.50;251944;1134;115050;-66
2020/12/28 00:26:09;;;;;;;7.60;4.03;;;;;;;4.98;63.11;97194.00;251887;1137;115627;-66
2020/12/28 00:31:11;;;;;;;6.35;3.62;;;;;;;5.11;62.86;97186.09;251928;1141;115299;-65
2020/12/28 00:36:15;;;;;;;7.63;3.07;;;;;;;5.25;63.11;97190.39;251832;1139;114649;-65
2020/12/28 00:41:17;;;;;;;5.43;3.17;;;;;;;5.42;63.57;97162.83;251985;1135;114971;-63
2020/12/28 00:46:20;;;;;;;5.03;2.90;;;;;;;5.57;63.50;97164.38;251806;1134;114981;-63
2020/12/28 00:51:22;;;;;;;4.57;2.57;;;;;;;5.66;64.11;97170.77;251302;1134;115049;-65
2020/12/28 00:56:25;;;;;;;4.83;3.12;;;;;;;5.71;63.05;97168.66;252001;1133;114791;-63
2020/12/28 01:01:28;;;;;;;5.73;3.43;;;;;;;5.72;63.65;97170.33;251829;1135;114861;-67
2020/12/28 01:06:31;;;;;;;8.13;3.40;;;;;;;5.73;63.39;97166.73;250434;1134;114584;-68
2020/12/28 01:12:03;;;;;;;9.13;3.83;;;;;;;5.70;63.44;97135.28;250545;1135;115421;-64
2020/12/28 01:17:06;;;;;;;9.33;3.90;;;;;;;5.72;63.08;97117.55;251880;1135;115125;-67
2020/12/28 01:22:19;;;;;;;12.13;4.40;;;;;;;5.73;63.86;97113.95;251869;1133;114767;-64
2020/12/28 01:27:21;;;;;;;7.50;3.90;;;;;;;5.72;63.91;97085.05;250930;1134;115240;-66
2020/12/28 01:32:24;;;;;;;4.23;3.10;;;;;;;5.71;64.03;97100.05;251989;1135;115396;-64
2020/12/28 01:37:54;;;;;;;5.47;3.30;;;;;;;5.70;63.90;97095.70;251853;1135;114520;-64
2020/12/28 01:42:56;;;;;;;8.20;4.00;;;;;;;5.72;64.35;97106.16;251810;1134;115000;-64
2020/12/28 01:47:58;;;;;;;8.48;3.30;;;;;;;5.69;64.45;97086.11;251887;1135;115100;-66
2020/12/28 01:53:02;;;;;;;6.73;3.40;;;;;;;5.67;63.84;97077.45;251732;1135;114841;-65
2020/12/28 01:58:06;;;;;;;7.33;3.70;;;;;;;5.60;64.01;97060.39;250708;1136;114658;-67
2020/12/28 02:03:09;;;;;;;6.00;3.10;;;;;;;5.54;63.46;97055.59;251386;1135;116393;-66
2020/12/28 02:08:19;;;;;;;6.90;3.17;;;;;;;5.50;63.26;97046.19;251749;1135;114424;-64
2020/12/28 02:13:22;;;;;;;5.97;2.47;;;;;;;5.48;63.16;97042.84;251848;1135;115082;-65
2020/12/28 02:18:47;;;;;;;2.60;1.70;;;;;;;5.49;63.71;97047.16;251901;1135;114801;-64
2020/12/28 02:23:57;;;;;;;1.93;1.43;;;;;;;5.52;64.28;97028.47;251741;1133;114727;-64
2020/12/28 02:28:59;;;;;;;1.20;1.00;;;;;;;5.57;64.17;97013.13;251611;1135;114610;-66
2020/12/28 02:34:01;;;;;;;1.87;1.20;;;;;;;5.66;64.41;97017.72;251957;1134;115689;-66
2020/12/28 02:39:08;;;;;;;1.67;1.27;;;;;;;5.74;64.44;97018.01;250334;1135;114660;-65
2020/12/28 02:44:11;;;;;;;1.80;1.00;;;;;;;5.73;63.44;97005.75;251798;1135;114843;-66
2020/12/28 02:49:31;;;;;;;2.27;1.60;;;;;;;5.61;63.72;97007.52;251917;1135;114690;-64
2020/12/28 02:54:52;;;;;;;2.07;1.70;;;;;;;5.49;62.79;96999.67;251871;1135;114607;-64
2020/12/28 03:00:15;;;;;;;2.70;1.87;;;;;;;5.35;63.48;96996.25;251938;1134;114718;-64
2020/12/28 03:05:35;;;;;;;2.98;1.85;;;;;;;5.23;63.15;96994.55;251900;1134;114779;-65
2020/12/28 03:10:56;;;;;;;2.40;1.40;;;;;;;5.25;64.17;97000.52;251822;1135;114912;-63
2020/12/28 03:16:17;;;;;;;2.43;1.40;;;;;;;5.33;64.24;96987.64;251948;1135;114503;-64
2020/12/28 03:21:38;;;;;;;2.27;1.10;;;;;;;5.52;64.93;96971.27;251433;1133;114831;-63
2020/12/28 03:27:02;;;;;;;1.60;1.10;;;;;;;5.75;63.96;96969.53;251894;1135;115124;-65
2020/12/28 03:32:23;;;;;;;2.10;1.30;;;;;;;5.89;64.33;96961.41;251951;1142;114747;-64
2020/12/28 03:37:44;;;;;;;1.37;1.00;;;;;;;6.02;64.39;96944.66;251147;1135;114999;-64
2020/12/28 03:43:05;;;;;;;1.13;0.80;;;;;;;6.10;64.70;96945.73;252028;1135;114790;-66
2020/12/28 03:48:26;;;;;;;1.27;0.87;;;;;;;6.13;63.28;96916.45;252021;1135;114693;-64
2020/12/28 03:53:47;;;;;;;1.43;0.83;;;;;;;6.14;64.30;96910.20;251803;1132;114816;-65
2020/12/28 03:59:07;;;;;;;1.42;0.80;;;;;;;6.18;63.57;96908.16;252025;1134;114269;-65
2020/12/28 04:04:28;;;;;;;0.90;0.53;;;;;;;6.21;63.61;96923.77;251889;1136;114239;-65
2020/12/28 04:09:49;;;;;;;0.80;0.50;;;;;;;6.28;63.89;96908.28;251818;1135;114711;-65
2020/12/28 04:15:24;;;;;;;0.77;0.53;;;;;;;6.32;62.94;96900.02;251001;1135;114712;-66
2020/12/28 04:20:26;;;;;;;0.67;0.53;;;;;;;6.35;63.56;96881.28;250975;1133;115013;-66
2020/12/28 04:25:29;;;;;;;0.80;0.80;;;;;;;6.27;63.48;96890.76;251986;1134;114714;-66
2020/12/28 04:30:31;;;;;;;1.03;1.00;;;;;;;6.15;62.25;96877.57;251998;1135;114747;-64
2020/12/28 04:35:33;;;;;;;3.20;1.63;;;;;;;6.02;62.96;96870.73;250231;1137;114641;-65
2020/12/28 04:40:37;;;;;;;3.47;2.08;;;;;;;5.82;63.28;96859.90;251996;1134;115338;-65
2020/12/28 04:45:42;;;;;;;4.17;1.83;;;;;;;5.64;63.08;96863.98;251855;1135;114894;-64
2020/12/28 04:50:45;;;;;;;3.67;1.50;;;;;;;5.56;63.31;96871.62;251722;1134;114964;-64
2020/12/28 04:55:47;;;;;;;5.80;1.60;;;;;;;5.54;62.90;96852.45;251923;1135;114271;-63
2020/12/28 05:00:59;;;;;;;8.33;3.00;;;;;;;5.60;63.97;96852.79;251912;1134;115097;-63
2020/12/28 05:06:01;;;;;;;13.27;3.93;;;;;;;5.63;63.16;96833.25;251931;1135;114787;-65
2020/12/28 05:11:14;;;;;;;5.87;2.47;;;;;;;5.73;63.40;96823.66;251573;1141;114975;-65
2020/12/28 05:16:18;;;;;;;6.17;2.35;;;;;;;5.83;63.67;96808.78;251831;1135;115047;-65
2020/12/28 05:21:24;;;;;;;5.33;1.93;;;;;;;5.89;63.45;96818.03;251222;1134;114878;-64
2020/12/28 05:26:32;;;;;;;9.43;2.33;;;;;;;5.90;64.14;96806.50;250451;1134;116050;-65
2020/12/28 05:31:36;;;;;;;9.93;2.97;;;;;;;5.85;62.97;96791.03;251903;1135;115095;-64
2020/12/28 05:36:39;;;;;;;7.33;2.90;;;;;;;5.86;63.35;96807.70;251944;1135;114647;-64
2020/12/28 05:41:52;;;;;;;7.72;2.65;;;;;;;5.83;63.06;96795.58;251796;1135;114973;-63
2020/12/28 05:47:27;;;;;;;8.00;3.00;;;;;;;5.74;63.84;96785.78;251733;1140;115196;-64
2020/12/28 05:52:31;;;;;;;8.08;3.00;;;;;;;5.65;63.35;96782.05;251817;1134;114825;-67
2020/12/28 05:57:37;;;;;;;6.07;2.70;;;;;;;5.59;63.51;96764.05;250355;1134;114619;-66
2020/12/28 06:02:40;;;;;;;6.60;3.20;;;;;;;5.53;63.33;96755.78;251932;1134;114745;-65
2020/12/28 06:07:43;;;;;;;6.33;3.52;;;;;;;5.42;63.89;96764.53;251832;1134;114748;-64
2020/12/28 06:12:55;;;;;;;7.43;3.53;;;;;;;5.31;63.60;96751.36;251828;1135;115214;-64
2020/12/28 06:17:58;;;;;;;7.73;4.40;;;;;;;5.25;64.00;96746.55;251912;1135;114766;-65
2020/12/28 06:23:04;;;;;;;4.57;3.20;;;;;;;5.29;64.39;96737.44;251831;1135;115619;-64
2020/12/28 06:28:07;;;;;;;4.10;2.30;;;;;;;5.39;64.72;96751.59;251847;1135;115206;-67
2020/12/28 06:33:09;;;;;;;3.90;2.30;;;;;;;5.57;64.95;96780.95;251962;1133;114550;-65
2020/12/28 06:38:11;;;;;;;3.73;2.20;;;;;;;5.81;64.33;96768.50;252000;1134;114916;-66
2020/12/28 06:43:15;;;;;;;8.03;2.33;;;;;;;6.04;64.23;96768.47;251982;1135;115007;-64
2020/12/28 06:48:23;;;;;;;2.62;1.72;;;;;;;6.21;63.87;96797.00;251836;1135;114359;-64
2020/12/28 06:53:26;;;;;;;4.73;1.80;;;;;;;6.30;64.32;96825.32;251683;1134;115139;-63
2020/12/28 06:58:29;;;;;;;4.67;2.73;;;;;;;6.29;64.24;96821.02;251940;1133;114775;-64
2020/12/28 07:03:33;;;;;;;4.03;2.90;;;;;;;6.25;63.40;96774.69;250250;1135;114536;-67
2020/12/28 07:08:39;;;;;;;5.30;2.43;;;;;;;6.21;63.17;96767.95;251806;1135;114300;-67
2020/12/28 07:13:41;;;;;;;2.87;2.20;;;;;;;6.19;62.91;96782.27;251923;1133;114427;-63
2020/12/28 07:18:44;;;;;;;5.70;2.73;;;;;;;6.10;62.65;96767.98;252066;1135;114545;-63
2020/12/28 07:23:46;;;;;;;5.15;2.70;;;;;;;6.02;63.38;96770.41;251951;1134;114980;-65
2020/12/28 07:28:49;;;;;;;4.80;2.63;;;;;;;5.95;63.39;96746.31;251224;1138;114580;-63
2020/12/28 07:33:51;;;;;;;6.23;2.37;;;;;;;5.86;63.09;96739.92;251981;1135;115196;-64
2020/12/28 07:38:54;;;;;;;3.70;2.13;;;;;;;5.88;63.38;96731.89;251857;1135;114597;-67
2020/12/28 07:43:59;;;;;;;2.97;2.10;;;;;;;6.02;64.58;96728.17;251766;1134;115164;-65
2020/12/28 07:49:10;;;;;;;;;;;;;;;6.19;63.81;96722.36;251941;1134;114685;-66
2020/12/28 07:54:22;;;;;;;1.97;1.70;;;;;;;6.35;63.52;96712.22;251990;1134;102054;-64
2020/12/28 07:59:41;;;;;;;2.35;1.62;;;;;;;6.45;64.02;96706.98;251918;1134;115140;-65
2020/12/28 08:04:44;;;;;;;6.10;2.40;;;;;;;6.54;64.21;96718.61;250258;1134;114831;-62
2020/12/28 08:09:54;;;;;;;4.03;2.20;;;;;;;6.67;63.32;96702.58;251899;1134;114967;-68
2020/12/28 08:14:57;;;;;;;5.33;2.35;;;;;;;6.85;64.14;96699.20;251761;1135;114560;-63
2020/12/28 08:20:07;;;;;;;4.10;2.20;;;;;;;7.04;64.26;96672.05;252023;1135;115040;-65
2020/12/28 08:25:11;;;;;;;5.57;2.87;;;;;;;7.23;63.93;96644.00;251418;1133;114692;-65
2020/12/28 08:30:13;;;;;;;7.53;3.43;;;;;;;7.37;64.36;96632.20;251876;1135;115287;-64
2020/12/28 08:35:16;;;;;;;4.00;2.93;;;;;;;7.43;63.70;96632.51;251824;1134;114544;-65
2020/12/28 08:40:21;;;;;;;4.80;2.37;;;;;;;7.49;64.36;96639.08;250934;1135;114440;-64
2020/12/28 08:45:25;;;;;;;3.00;2.02;;;;;;;7.55;63.12;96647.31;251908;1133;114642;-64
2020/12/28 08:50:34;;;;;;;3.40;2.30;;;;;;;7.60;63.72;96615.14;251888;1134;114780;-64
2020/12/28 08:55:37;;;;;;;3.43;2.20;;;;;;;7.60;63.67;96607.20;251930;1135;114911;-67
2020/12/28 09:00:39;;;;;;;2.60;1.90;;;;;;;7.62;63.16;96599.14;251848;1135;114860;-65
2020/12/28 09:05:41;;;;;;;2.95;1.90;;;;;;;7.67;63.29;96602.19;251875;1134;114605;-64
2020/12/28 09:10:43;;;;;;;3.70;2.00;;;;;;;7.69;63.80;96593.15;251856;1135;114742;-64
2020/12/28 09:15:46;;;;;;;3.03;1.80;;;;;;;7.73;63.57;96588.41;251125;1136;114724;-66
2020/12/28 09:20:48;;;;;;;2.40;2.00;;;;;;;7.76;63.32;96585.49;250975;1135;114992;-64
2020/12/28 09:25:52;;;;;;;3.63;2.10;;;;;;;7.79;62.70;96572.81;252068;1135;114937;-64
2020/12/28 09:30:54;;;;;;;3.65;2.40;;;;;;;7.85;62.97;96579.37;251859;1137;115267;-65
2020/12/28 09:35:56;;;;;;;4.70;2.70;;;;;;;7.91;63.39;96567.38;251957;1133;114891;-64
2020/12/28 09:40:58;;;;;;;6.43;3.70;;;;;;;8.01;63.41;96558.44;251277;1136;114973;-63
2020/12/28 09:46:00;;;;;;;8.33;3.93;;;;;;;8.15;63.21;96536.02;251827;1135;114652;-64
2020/12/28 09:51:04;;;;;;;7.37;4.10;;;;;;;8.31;63.07;96532.75;251887;1135;114720;-65
2020/12/28 09:56:06;;;;;;;6.15;3.62;;;;;;;8.43;63.39;96531.66;251784;1134;114768;-67
2020/12/28 10:01:10;;;;;;;3.67;2.40;;;;;;;8.58;62.90;96525.89;251506;1136;115406;-64
2020/12/28 10:06:31;;;;;;;3.73;2.30;;;;;;;8.72;62.73;96520.94;251763;1135;115127;-66
2020/12/28 10:11:34;;;;;;;2.67;2.00;;;;;;;8.79;62.39;96531.80;251965;1142;114801;-64
2020/12/28 10:16:36;;;;;;;2.83;2.00;;;;;;;8.82;61.95;96533.33;251898;1133;114306;-64
2020/12/28 10:21:38;;;;;;;2.47;1.85;;;;;;;8.82;62.06;96520.06;251937;1133;114699;-63
2020/12/28 10:26:41;;;;;;;3.57;2.33;;;;;;;8.83;61.69;96521.73;251884;1134;114713;-63
2020/12/28 10:31:43;;;;;;;3.17;1.97;;;;;;;8.80;61.38;96524.67;251913;1135;114402;-67
2020/12/28 10:36:45;;;;;;;2.37;1.77;;;;;;;8.78;61.58;96514.22;251646;1135;115122;-66
2020/12/28 10:41:48;;;;;;;2.80;1.90;;;;;;;8.79;61.47;96515.88;252057;1134;114742;-65
2020/12/28 10:46:50;;;;;;;2.87;1.90;;;;;;;8.79;61.12;96510.58;251855;1138;115032;-64
2020/12/28 10:51:52;;;;;;;3.73;2.30;;;;;;;8.79;61.48;96510.58;251863;1133;115849;-63
2020/12/28 10:56:55;;;;;;;2.03;1.77;;;;;;;8.76;60.81;96514.38;251833;1136;114496;-65
2020/12/28 11:01:58;;;;;;;5.83;2.17;;;;;;;8.75;60.60;96503.91;252051;1135;115585;-67
2020/12/28 11:07:00;;;;;;;4.97;2.43;;;;;;;8.74;60.71;96504.90;251784;1135;115368;-66
2020/12/28 11:12:02;;;;;;;3.30;2.10;;;;;;;8.72;60.58;96506.84;252064;1136;114794;-66
2020/12/28 11:17:04;;;;;;;3.87;2.50;;;;;;;8.72;60.17;96533.36;251921;1134;114786;-64
2020/12/28 11:22:07;;;;;;;4.63;3.00;;;;;;;8.71;60.46;96523.75;251765;1135;114970;-65
2020/12/28 11:27:09;;;;;;;3.07;2.33;;;;;;;8.72;60.85;96542.14;251807;1135;114624;-64
2020/12/28 11:32:12;;;;;;;3.60;2.73;;;;;;;8.71;60.35;96556.39;251621;1135;114765;-65
2020/12/28 11:37:14;;;;;;;3.20;2.30;;;;;;;8.69;60.21;96558.34;251031;1134;114911;-64
2020/12/28 11:42:18;;;;;;;5.53;2.80;;;;;;;8.69;60.28;96552.20;251982;1133;114852;-64
2020/12/28 11:47:20;;;;;;;4.03;2.60;;;;;;;8.71;60.17;96547.61;252018;1134;114397;-64
2020/12/28 11:52:23;;;;;;;6.57;2.67;;;;;;;8.68;60.13;96558.50;251790;1135;114220;-63
2020/12/28 11:57:26;;;;;;;5.70;3.30;;;;;;;8.67;59.99;96555.02;251999;1135;114993;-65
2020/12/28 12:02:30;;;;;;;4.53;2.90;;;;;;;8.65;59.89;96556.97;251804;1134;115022;-66
2020/12/28 12:07:32;;;;;;;5.07;3.43;;;;;;;8.62;59.25;96564.37;251493;1132;116291;-65
2020/12/28 12:12:34;;;;;;;4.80;2.93;;;;;;;8.58;59.67;96563.00;251963;1134;114590;-64
2020/12/28 12:17:37;;;;;;;6.50;3.53;;;;;;;8.55;59.24;96548.20;251944;1134;114813;-64
2020/12/28 12:22:39;;;;;;;4.65;3.50;;;;;;;8.49;59.60;96556.73;250692;1133;114711;-66
2020/12/28 12:27:41;;;;;;;7.30;4.17;;;;;;;8.48;59.27;96555.90;250272;1134;114638;-65
2020/12/28 12:32:47;;;;;;;6.77;3.90;;;;;;;8.45;59.05;96560.66;251175;1135;114960;-64
2020/12/28 12:37:49;;;;;;;9.30;4.30;;;;;;;8.38;59.75;96559.55;251080;1135;115323;-64
2020/12/28 12:42:52;;;;;;;8.73;4.20;;;;;;;8.33;59.71;96554.66;251989;1134;114299;-65
2020/12/28 12:47:54;;;;;;;6.83;4.10;;;;;;;8.34;59.86;96558.97;251802;1134;114942;-66
2020/12/28 12:52:57;;;;;;;8.90;4.62;;;;;;;8.32;59.36;96582.11;251834;1135;115412;-67
2020/12/28 12:57:59;;;;;;;7.17;4.60;;;;;;;8.25;59.00;96581.88;250673;1134;115033;-65
2020/12/28 13:03:03;;;;;;;8.13;4.42;;;;;;;8.22;59.49;96574.20;250815;1133;114896;-66
2020/12/28 13:08:05;;;;;;;8.00;5.10;;;;;;;8.17;58.97;96602.92;252048;1135;114649;-66
2020/12/28 13:13:07;;;;;;;7.27;4.93;;;;;;;8.13;59.20;96611.30;252007;1136;114440;-66
2020/12/28 13:18:09;;;;;;;8.18;5.37;;;;;;;8.08;59.37;96611.70;251831;1135;114590;-66
2020/12/28 13:23:12;;;;;;;10.57;5.60;;;;;;;8.04;58.85;96599.71;250743;1134;114844;-63
2020/12/28 13:28:14;;;;;;;8.10;4.97;;;;;;;8.02;59.41;96621.05;251929;1134;114700;-63
2020/12/28 13:33:16;;;;;;;8.50;5.17;;;;;;;8.01;59.21;96614.06;248691;1134;114592;-64
2020/12/28 13:38:18;;;;;;;5.63;3.10;;;;;;;8.02;58.79;96617.58;251490;1134;114292;-62
2020/12/28 13:43:21;;;;;;;6.40;2.20;;;;;;;8.14;58.67;96616.44;250856;1135;114723;-65
2020/12/28 13:48:24;;;;;;;5.90;1.57;;;;;;;8.32;57.61;96615.73;251968;1143;115348;-70
2020/12/28 13:53:26;;;;;;;3.53;1.07;;;;;;;8.42;57.92;96627.19;251919;1133;114712;-64
2020/12/28 13:58:29;;;;;;;5.27;1.20;;;;;;;8.49;57.55;96634.45;250533;1135;115409;-69
2020/12/28 14:03:31;;;;;;;4.90;0.83;;;;;;;8.54;56.75;96626.06;251871;1137;114562;-63
2020/12/28 14:08:38;;;;;;;2.33;1.13;;;;;;;8.55;56.72;96609.17;249772;1135;114568;-69
2020/12/28 14:13:42;;;;;;;2.63;1.20;;;;;;;8.57;56.50;96633.74;251268;1139;114348;-63
2020/12/28 14:18:46;;;;;;;1.33;0.83;;;;;;;8.56;56.21;96642.68;251906;1135;114685;-64
2020/12/28 14:23:52;;;;;;;2.57;0.80;;;;;;;8.51;56.21;96624.53;251870;1134;115391;-64
2020/12/28 14:28:54;;;;;;;4.03;0.80;;;;;;;8.49;55.24;96613.25;250326;1133;114547;-65
2020/12/28 14:33:56;;;;;;;2.20;1.00;;;;;;;8.49;55.60;96630.94;251752;1135;114711;-68
2020/12/28 14:38:58;;;;;;;1.47;0.80;;;;;;;8.49;55.83;96642.41;250458;1135;114618;-66
2020/12/28 14:44:01;;;;;;;2.87;0.90;;;;;;;8.48;55.65;96646.02;248529;1135;114383;-67
2020/12/28 14:49:03;;;;;;;2.93;0.90;;;;;;;8.45;55.38;96651.59;250760;1134;114938;-67
2020/12/28 14:54:05;;;;;;;4.00;0.90;;;;;;;8.44;55.18;96641.15;249883;1134;114551;-67
2020/12/28 14:59:08;;;;;;;1.37;0.90;;;;;;;8.42;55.07;96616.59;251898;1135;114592;-66
2020/12/28 15:04:10;;;;;;;4.80;1.07;;;;;;;8.40;54.95;96615.91;252000;1133;114512;-67
2020/12/28 15:09:16;;;;;;;;;;;;;;;8.39;54.60;96620.38;251917;1134;115185;-66
2020/12/28 15:14:18;;;;;;;2.27;0.80;;;;;;;8.39;54.58;96635.42;252057;1134;102442;-66
2020/12/28 15:19:20;;;;;;;1.90;1.00;;;;;;;8.39;54.70;96661.92;248828;1135;114653;-66
2020/12/28 15:24:22;;;;;;;2.13;0.97;;;;;;;8.36;54.51;96670.14;248881;1134;114460;-66
2020/12/28 15:29:25;;;;;;;2.63;0.93;;;;;;;8.35;54.43;96690.48;252055;1134;115490;-66
2020/12/28 15:34:27;;;;;;;8.83;4.10;;;;;;;8.37;54.65;96700.96;252029;1135;115002;-66
2020/12/28 15:39:29;;;;;;;11.23;5.07;;;;;;;8.35;55.31;96702.90;251916;1133;114554;-66
2020/12/28 15:44:32;;;;;;;14.90;6.17;;;;;;;8.25;54.92;96713.48;252083;1135;114903;-68
2020/12/28 15:49:34;;;;;;;13.32;5.83;;;;;;;8.16;55.20;96743.48;252178;1135;114659;-66
2020/12/28 15:54:39;;;;;;;10.37;5.70;;;;;;;8.05;54.53;96728.55;251805;1133;115396;-68
2020/12/28 15:59:41;;;;;;;12.98;6.10;;;;;;;7.96;55.68;96724.05;252034;1135;115407;-67
2020/12/28 16:04:43;;;;;;;11.33;3.70;;;;;;;7.91;55.00;96720.96;251914;1136;114738;-66
2020/12/28 16:09:46;;;;;;;8.87;3.83;;;;;;;7.94;55.18;96733.94;251769;1135;114916;-67
2020/12/28 16:14:49;;;;;;;11.97;4.30;;;;;;;7.99;54.93;96744.97;250846;1134;114350;-67
2020/12/28 16:19:52;;;;;;;12.00;6.17;;;;;;;8.04;55.14;96737.44;251888;1135;114727;-66
2020/12/28 16:24:54;;;;;;;12.80;6.83;;;;;;;8.02;55.45;96758.78;251218;1134;116344;-67
2020/12/28 16:29:56;;;;;;;15.37;7.77;;;;;;;7.91;55.09;96756.22;251946;1135;115040;-66
2020/12/28 16:34:59;;;;;;;22.37;9.10;;;;;;;7.83;55.61;96748.13;252003;1134;114849;-66
2020/12/28 16:40:01;;;;;;;21.48;9.15;;;;;;;7.69;55.21;96730.80;251279;1135;114826;-66
2020/12/28 16:45:04;;;;;;;15.30;8.00;;;;;;;7.55;55.85;96731.17;248633;1134;115252;-67
2020/12/28 16:50:07;;;;;;;14.67;7.80;;;;;;;7.42;56.09;96725.27;251324;1135;114895;-67
2020/12/28 16:55:29;;;;;;;18.07;8.63;;;;;;;7.27;56.07;96732.73;251866;1136;114946;-65
2020/12/28 17:00:32;;;;;;;19.67;8.87;;;;;;;7.17;56.42;96735.31;251010;1134;114841;-66
2020/12/28 17:05:36;;;;;;;18.20;8.03;;;;;;;7.06;56.01;96730.91;250580;1136;114899;-67
2020/12/28 17:10:38;;;;;;;23.83;9.70;;;;;;;7.00;56.96;96723.53;251857;1133;114960;-67
2020/12/28 17:15:41;;;;;;;18.90;8.83;;;;;;;6.98;56.37;96721.97;251728;1134;114664;-65
2020/12/28 17:20:43;;;;;;;24.20;10.27;;;;;;;6.94;57.01;96729.33;251852;1135;114962;-66
2020/12/28 17:25:45;;;;;;;20.03;9.37;;;;;;;6.91;57.35;96726.94;251760;1134;114710;-65
2020/12/28 17:30:47;;;;;;;22.87;10.43;;;;;;;6.86;56.38;96722.05;251938;1135;114640;-65
2020/12/28 17:35:50;;;;;;;22.40;9.43;;;;;;;6.78;56.66;96713.91;251737;1139;115007;-65
2020/12/28 17:40:56;;;;;;;21.37;10.77;;;;;;;6.82;57.28;96710.03;251856;1135;114925;-65
2020/12/28 17:45:58;;;;;;;21.60;9.53;;;;;;;6.89;56.55;96705.07;251799;1133;115451;-68
2020/12/28 17:51:00;;;;;;;17.80;8.43;;;;;;;6.97;57.33;96678.00;251775;1134;115029;-67
2020/12/28 17:56:03;;;;;;;15.68;7.87;;;;;;;7.08;57.11;96667.33;251007;1134;114701;-65
2020/12/28 18:01:05;;;;;;;16.07;7.43;;;;;;;7.15;56.76;96673.77;252020;1134;114959;-66
2020/12/28 18:06:11;;;;;;;13.37;7.40;;;;;;;7.19;57.26;96669.87;251876;1134;115154;-64
2020/12/28 18:11:14;;;;;;;16.90;7.70;;;;;;;7.22;56.66;96676.72;251926;1133;115104;-65
2020/12/28 18:16:18;;;;;;;16.75;7.67;;;;;;;7.21;57.15;96672.41;251709;1135;115223;-64
2020/12/28 18:21:29;;;;;;;12.93;6.53;;;;;;;7.16;56.66;96675.43;251751;1135;115217;-66
2020/12/28 18:26:49;;;;;;;14.67;6.63;;;;;;;7.11;56.30;96670.55;251758;1135;114880;-65
2020/12/28 18:31:53;;;;;;;15.07;8.00;;;;;;;7.10;56.52;96660.12;251762;1135;114833;-66
2020/12/28 18:36:56;;;;;;;17.12;7.72;;;;;;;7.12;56.62;96650.22;251868;1134;114996;-66
2020/12/28 18:42:13;;;;;;;12.87;7.40;;;;;;;7.11;55.97;96636.17;251451;1134;114932;-68
2020/12/28 18:47:20;;;;;;;12.70;6.53;;;;;;;7.06;56.65;96643.64;251797;1134;115069;-69
2020/12/28 18:52:36;;;;;;;16.63;7.33;;;;;;;7.02;56.35;96649.34;251479;1134;114696;-68
2020/12/28 18:57:45;;;;;;;16.47;7.60;;;;;;;6.98;57.17;96642.66;251590;1134;115118;-69
2020/12/28 19:03:11;;;;;;;13.90;7.30;;;;;;;6.94;56.98;96649.17;251841;1134;115106;-67
2020/12/28 19:08:58;;;;;;;13.47;7.03;;;;;;;6.94;57.56;96635.95;251397;1135;114689;-69
2020/12/28 19:14:24;;;;;;;13.58;7.53;;;;;;;6.97;56.66;96639.17;251050;1135;114544;-68
2020/12/28 19:19:30;;;;;;;10.55;5.75;;;;;;;7.04;57.38;96636.84;250632;1135;114959;-67
2020/12/28 19:24:33;;;;;;;7.47;4.10;;;;;;;7.16;57.56;96633.11;250977;1145;114736;-66
2020/12/28 19:29:36;;;;;;;6.23;3.60;;;;;;;7.30;58.10;96621.33;251229;1138;114333;-66
2020/12/28 19:34:38;;;;;;;8.50;4.03;;;;;;;7.44;57.95;96606.88;252031;1135;114354;-67
2020/12/28 19:39:40;;;;;;;5.90;3.60;;;;;;;7.58;57.64;96588.82;251983;1137;114486;-66
2020/12/28 19:44:44;;;;;;;6.50;3.83;;;;;;;7.66;57.93;96588.13;251922;1134;115014;-66
2020/12/28 19:49:46;;;;;;;7.67;4.60;;;;;;;7.71;58.30;96577.12;251967;1135;114628;-66
2020/12/28 19:54:48;;;;;;;6.63;4.33;;;;;;;7.71;57.21;96588.56;251858;1135;114474;-65
2020/12/28 19:59:51;;;;;;;7.03;3.73;;;;;;;7.78;58.51;96583.56;251903;1133;114172;-66
2020/12/28 20:04:54;;;;;;;8.77;4.50;;;;;;;7.87;57.98;96573.93;252016;1134;114715;-68
2020/12/28 20:09:56;;;;;;;9.90;5.27;;;;;;;7.97;57.79;96557.06;250435;1135;114477;-66
2020/12/28 20:14:58;;;;;;;10.67;5.20;;;;;;;8.02;58.31;96544.25;252086;1135;114333;-67
2020/12/28 20:20:01;;;;;;;8.43;4.80;;;;;;;8.01;57.83;96553.15;251299;1135;114716;-67
2020/12/28 20:25:06;;;;;;;8.63;4.60;;;;;;;7.99;57.76;96547.17;252043;1135;114180;-66
2020/12/28 20:30:11;;;;;;;11.23;5.33;;;;;;;8.02;58.67;96538.95;250369;1135;114536;-66
2020/12/28 20:35:13;;;;;;;;;;;;;;;8.02;57.99;96520.41;251975;1135;114683;-65
2020/12/28 20:40:35;;;;;;;7.83;4.10;;;;;;;8.02;58.33;96511.63;250914;1134;104326;-65
2020/12/28 20:45:39;;;;;;;7.60;4.47;;;;;;;8.06;58.39;96515.66;251931;1134;114179;-66
2020/12/28 20:50:42;;;;;;;6.90;3.80;;;;;;;8.06;58.87;96507.72;251934;1135;114799;-65
2020/12/28 20:55:45;;;;;;;6.77;3.80;;;;;;;8.11;58.84;96513.41;251296;1134;114699;-64
2020/12/28 21:00:52;;;;;;;6.67;3.70;;;;;;;8.16;58.56;96507.70;251671;1134;115014;-66
2020/12/28 21:05:57;;;;;;;6.33;3.87;;;;;;;8.20;58.52;96494.02;249659;1134;115925;-65
2020/12/28 21:11:10;;;;;;;5.90;3.62;;;;;;;8.19;59.05;96492.36;250726;1111;115836;-66
2020/12/28 21:16:13;;;;;;;6.93;3.90;;;;;;;8.23;58.73;96487.61;251866;1132;115058;-66
2020/12/28 21:21:16;;;;;;;5.85;3.95;;;;;;;8.23;58.80;96483.14;251931;1133;114794;-67
2020/12/28 21:26:18;;;;;;;6.47;4.30;;;;;;;8.19;58.56;96476.46;252059;1133;116076;-66
2020/12/28 21:31:21;;;;;;;6.20;4.17;;;;;;;8.21;59.21;96476.30;252355;1132;114618;-65
2020/12/28 21:36:23;;;;;;;8.50;4.50;;;;;;;8.20;58.67;96464.05;251500;1132;114368;-64
2020/12/28 21:41:28;;;;;;;9.47;4.73;;;;;;;8.24;58.80;96450.36;251949;1132;114679;-65
2020/12/28 21:46:30;;;;;;;9.63;5.15;;;;;;;8.31;59.25;96434.72;251927;1136;114746;-66
2020/12/28 21:51:33;;;;;;;10.27;4.97;;;;;;;8.33;58.75;96419.52;251807;1132;114963;-65
2020/12/28 21:56:35;;;;;;;8.83;5.13;;;;;;;8.33;59.33;96408.92;251896;1135;114824;-65
2020/12/28 22:01:44;;;;;;;8.77;4.97;;;;;;;8.30;59.37;96415.34;251825;1135;115560;-65
2020/12/28 22:06:50;;;;;;;14.57;6.10;;;;;;;8.25;59.09;96425.55;250338;1132;114632;-64
2020/12/28 22:11:58;;;;;;;14.37;6.50;;;;;;;8.21;59.21;96404.77;250403;1111;114657;-64
2020/12/28 22:17:05;;;;;;;14.10;7.17;;;;;;;8.17;59.21;96390.98;251685;1134;114594;-65
2020/12/28 22:22:07;;;;;;;10.87;5.47;;;;;;;8.17;59.22;96398.94;247908;1133;114873;-63
2020/12/28 22:27:10;;;;;;;7.63;4.37;;;;;;;8.18;59.26;96399.77;250520;1133;115262;-63
2020/12/28 22:32:19;;;;;;;6.03;3.53;;;;;;;8.17;58.89;96390.16;249490;1132;114851;-63
2020/12/28 22:37:26;;;;;;;4.83;3.43;;;;;;;8.21;59.83;96396.83;248985;1134;115533;-64
2020/12/28 22:42:33;;;;;;;5.67;3.80;;;;;;;8.25;59.73;96396.41;248777;1134;115530;-65
2020/12/28 22:47:47;;;;;;;7.97;3.80;;;;;;;8.28;59.27;96387.31;251245;1133;114719;-63
2020/12/28 22:53:03;;;;;;;;;;;;;;;8.34;60.04;96384.08;250525;1134;115241;-64
2020/12/28 22:58:15;;;;;;;9.30;4.57;;;;;;;8.35;59.34;96371.66;251815;1137;104332;-64
2020/12/28 23:03:23;;;;;;;10.50;4.72;;;;;;;8.40;60.12;96357.03;251958;1134;114588;-63
2020/12/28 23:08:48;;;;;;;10.70;5.23;;;;;;;8.37;59.41;96345.86;251288;1133;115532;-64
2020/12/28 23:13:54;;;;;;;13.57;5.37;;;;;;;8.38;59.69;96342.25;251572;1132;114957;-63
2020/12/28 23:19:04;;;;;;;6.97;3.50;;;;;;;8.34;59.74;96335.56;249263;1133;115741;-65
2020/12/28 23:24:06;;;;;;;6.47;3.67;;;;;;;8.32;60.40;96305.72;251275;1132;114557;-64
2020/12/28 23:29:09;;;;;;;7.65;3.50;;;;;;;8.35;59.55;96284.22;251744;1134;114720;-66
2020/12/28 23:34:12;;;;;;;5.07;3.07;;;;;;;8.37;59.94;96279.62;251881;1135;114319;-63
2020/12/28 23:39:18;;;;;;;6.30;3.00;;;;;;;8.38;60.45;96294.56;250798;1132;114529;-63